sensor_id;sensor_type;location;lat;lon;timestamp;pressure;altitude;pressure_sealevel;temperature;humidity
27210;BME280;14721;42.668;23.386;2023-04-25T00:02:03;94553.91;;;11.06;100.00
27210;BME280;14721;42.668;23.386;2023-04-25T00:04:28;94548.78;;;10.93;100.00
27210;BME280;14721;42.668;23.386;2023-04-25T00:06:55;94546.97;;;10.94;100.00
27210;BME280;14721;42.668;23.386;2023-04-25T00:09:21;94547.81;;;10.94;100.00
27210;BME280;14721;42.668;23.386;2023-04-25T00:11:47;94544.53;;;10.81;100.00
27210;BME280;14721;42.668;23.386;2023-04-25T00:14:13;94533.25;;;10.78;100.00
27210;BME280;14721;42.668;23.386;2023-04-25T00:16:39;94513.94;;;10.65;100.00
27210;BME280;14721;42.668;23.386;2023-04-25T00:19:06;94521.88;;;10.76;100.00
27210;BME280;14721;42.668;23.386;2023-04-25T00:21:32;94526.56;;;10.63;100.00
27210;BME280;14721;42.668;23.386;2023-04-25T00:23:59;94508.38;;;10.47;100.00
27210;BME280;14721;42.668;23.386;2023-04-25T00:26:25;94511.03;;;10.47;100.00
27210;BME280;14721;42.668;23.386;2023-04-25T00:28:51;94504.44;;;10.51;100.00
27210;BME280;14721;42.668;23.386;2023-04-25T00:31:17;94491.22;;;10.50;100.00
27210;BME280;14721;42.668;23.386;2023-04-25T00:33:42;94501.19;;;10.48;100.00
27210;BME280;14721;42.668;23.386;2023-04-25T00:36:08;94490.91;;;10.43;100.00
27210;BME280;14721;42.668;23.386;2023-04-25T00:38:37;94500.09;;;10.50;100.00
27210;BME280;14721;42.668;23.386;2023-04-25T00:41:07;94498.75;;;10.35;100.00
27210;BME280;14721;42.668;23.386;2023-04-25T00:43:33;94500.75;;;10.43;100.00
27210;BME280;14721;42.668;23.386;2023-04-25T00:46:00;94491.22;;;10.50;100.00
27210;BME280;14721;42.668;23.386;2023-04-25T00:48:26;94482.94;;;10.53;100.00
27210;BME280;14721;42.668;23.386;2023-04-25T00:50:53;94482.34;;;10.49;100.00
27210;BME280;14721;42.668;23.386;2023-04-25T00:53:22;94480.28;;;10.53;100.00
27210;BME280;14721;42.668;23.386;2023-04-25T00:55:48;94472.59;;;10.59;100.00
27210;BME280;14721;42.668;23.386;2023-04-25T00:58:17;94479.34;;;10.63;100.00
27210;BME280;14721;42.668;23.386;2023-04-25T01:00:45;94467.72;;;10.74;100.00
27210;BME280;14721;42.668;23.386;2023-04-25T01:03:15;94477.53;;;10.73;100.00
27210;BME280;14721;42.668;23.386;2023-04-25T01:05:47;94472.50;;;10.80;100.00
27210;BME280;14721;42.668;23.386;2023-04-25T01:08:13;94477.59;;;10.83;100.00
27210;BME280;14721;42.668;23.386;2023-04-25T01:10:39;94468.72;;;10.82;100.00
27210;BME280;14721;42.668;23.386;2023-04-25T01:13:05;94467.25;;;11.08;100.00
27210;BME280;14721;42.668;23.386;2023-04-25T01:15:31;94458.22;;;11.09;100.00
27210;BME280;14721;42.668;23.386;2023-04-25T01:17:58;94459.34;;;10.97;100.00
27210;BME280;14721;42.668;23.386;2023-04-25T01:20:26;94457.22;;;10.91;100.00
27210;BME280;14721;42.668;23.386;2023-04-25T01:22:54;94453.25;;;10.86;100.00
27210;BME280;14721;42.668;23.386;2023-04-25T01:25:21;94458.03;;;10.82;100.00
27210;BME280;14721;42.668;23.386;2023-04-25T01:27:47;94449.47;;;10.88;100.00
27210;BME280;14721;42.668;23.386;2023-04-25T01:30:13;94446.66;;;10.80;100.00
27210;BME280;14721;42.668;23.386;2023-04-25T01:32:42;94444.34;;;10.66;100.00
27210;BME280;14721;42.668;23.386;2023-04-25T01:35:10;94440.94;;;10.64;100.00
27210;BME280;14721;42.668;23.386;2023-04-25T01:37:40;94439.28;;;10.63;100.00
27210;BME280;14721;42.668;23.386;2023-04-25T01:40:07;94451.94;;;10.71;100.00
27210;BME280;14721;42.668;23.386;2023-04-25T01:42:35;94446.28;;;10.64;100.00
27210;BME280;14721;42.668;23.386;2023-04-25T01:45:01;94456.97;;;10.64;100.00
27210;BME280;14721;42.668;23.386;2023-04-25T01:47:27;94455.88;;;10.67;100.00
27210;BME280;14721;42.668;23.386;2023-04-25T01:49:53;94448.00;;;10.65;100.00
27210;BME280;14721;42.668;23.386;2023-04-25T01:52:19;94451.38;;;10.67;100.00
27210;BME280;14721;42.668;23.386;2023-04-25T01:54:44;94457.69;;;10.66;100.00
27210;BME280;14721;42.668;23.386;2023-04-25T01:57:11;94466.84;;;10.64;100.00
27210;BME280;14721;42.668;23.386;2023-04-25T01:59:37;94461.19;;;10.57;100.00
27210;BME280;14721;42.668;23.386;2023-04-25T02:02:02;94461.91;;;10.59;100.00
27210;BME280;14721;42.668;23.386;2023-04-25T02:04:31;94458.22;;;10.60;100.00
27210;BME280;14721;42.668;23.386;2023-04-25T02:06:56;94449.78;;;10.55;100.00
27210;BME280;14721;42.668;23.386;2023-04-25T02:09:22;94449.91;;;10.54;100.00
27210;BME280;14721;42.668;23.386;2023-04-25T02:11:48;94455.25;;;10.54;100.00
27210;BME280;14721;42.668;23.386;2023-04-25T02:14:13;94458.63;;;10.56;100.00
27210;BME280;14721;42.668;23.386;2023-04-25T02:16:40;94448.03;;;10.45;100.00
27210;BME280;14721;42.668;23.386;2023-04-25T02:19:05;94442.69;;;10.35;100.00
27210;BME280;14721;42.668;23.386;2023-04-25T02:21:31;94431.59;;;10.40;100.00
27210;BME280;14721;42.668;23.386;2023-04-25T02:23:57;94432.34;;;10.51;100.00
27210;BME280;14721;42.668;23.386;2023-04-25T02:26:22;94433.47;;;10.58;100.00
27210;BME280;14721;42.668;23.386;2023-04-25T02:28:51;94433.06;;;10.53;100.00
27210;BME280;14721;42.668;23.386;2023-04-25T02:31:17;94419.97;;;10.50;100.00
27210;BME280;14721;42.668;23.386;2023-04-25T02:33:42;94422.91;;;10.47;100.00
27210;BME280;14721;42.668;23.386;2023-04-25T02:36:08;94416.72;;;10.47;100.00
27210;BME280;14721;42.668;23.386;2023-04-25T02:38:34;94418.81;;;10.43;100.00
27210;BME280;14721;42.668;23.386;2023-04-25T02:40:59;94422.69;;;10.30;100.00
27210;BME280;14721;42.668;23.386;2023-04-25T02:43:25;94408.84;;;10.15;100.00
27210;BME280;14721;42.668;23.386;2023-04-25T02:45:51;94414.81;;;10.28;100.00
27210;BME280;14721;42.668;23.386;2023-04-25T02:48:16;94409.66;;;10.36;100.00
27210;BME280;14721;42.668;23.386;2023-04-25T02:50:42;94419.75;;;10.33;100.00
27210;BME280;14721;42.668;23.386;2023-04-25T02:53:08;94419.88;;;10.31;100.00
27210;BME280;14721;42.668;23.386;2023-04-25T02:55:33;94411.31;;;10.28;100.00
27210;BME280;14721;42.668;23.386;2023-04-25T02:57:59;94398.66;;;10.30;100.00
27210;BME280;14721;42.668;23.386;2023-04-25T03:00:25;94401.63;;;10.27;100.00
27210;BME280;14721;42.668;23.386;2023-04-25T03:02:51;94405.50;;;10.13;100.00
27210;BME280;14721;42.668;23.386;2023-04-25T03:05:17;94387.72;;;10.03;100.00
27210;BME280;14721;42.668;23.386;2023-04-25T03:07:43;94412.53;;;10.03;100.00
27210;BME280;14721;42.668;23.386;2023-04-25T03:10:10;94413.09;;;10.18;100.00
27210;BME280;14721;42.668;23.386;2023-04-25T03:12:36;94397.16;;;10.07;100.00
27210;BME280;14721;42.668;23.386;2023-04-25T03:15:02;94399.06;;;10.05;100.00
27210;BME280;14721;42.668;23.386;2023-04-25T03:17:27;94398.94;;;10.06;100.00
27210;BME280;14721;42.668;23.386;2023-04-25T03:19:53;94402.97;;;10.12;100.00
27210;BME280;14721;42.668;23.386;2023-04-25T03:22:19;94398.91;;;10.17;100.00
27210;BME280;14721;42.668;23.386;2023-04-25T03:24:47;94403.97;;;10.20;100.00
27210;BME280;14721;42.668;23.386;2023-04-25T03:27:12;94400.03;;;10.15;100.00
27210;BME280;14721;42.668;23.386;2023-04-25T03:29:38;94408.03;;;10.24;100.00
27210;BME280;14721;42.668;23.386;2023-04-25T03:32:03;94401.09;;;10.12;100.00
27210;BME280;14721;42.668;23.386;2023-04-25T03:34:29;94402.16;;;10.30;100.00
27210;BME280;14721;42.668;23.386;2023-04-25T03:36:55;94387.28;;;10.37;100.00
27210;BME280;14721;42.668;23.386;2023-04-25T03:39:20;94391.06;;;10.25;100.00
27210;BME280;14721;42.668;23.386;2023-04-25T03:41:46;94386.75;;;10.34;100.00
27210;BME280;14721;42.668;23.386;2023-04-25T03:44:11;94399.41;;;10.41;100.00
27210;BME280;14721;42.668;23.386;2023-04-25T03:46:37;94404.34;;;10.46;100.00
27210;BME280;14721;42.668;23.386;2023-04-25T03:49:03;94409.97;;;10.52;100.00
27210;BME280;14721;42.668;23.386;2023-04-25T03:51:28;94401.19;;;10.71;100.00
27210;BME280;14721;42.668;23.386;2023-04-25T03:53:54;94400.63;;;10.77;100.00
27210;BME280;14721;42.668;23.386;2023-04-25T03:56:19;94393.47;;;10.87;100.00
27210;BME280;14721;42.668;23.386;2023-04-25T03:58:45;94397.03;;;10.97;100.00
27210;BME280;14721;42.668;23.386;2023-04-25T04:01:11;94393.94;;;11.01;100.00
27210;BME280;14721;42.668;23.386;2023-04-25T04:03:37;94393.94;;;11.11;100.00
27210;BME280;14721;42.668;23.386;2023-04-25T04:06:03;94393.69;;;11.33;100.00
27210;BME280;14721;42.668;23.386;2023-04-25T04:08:31;94382.56;;;11.37;100.00
27210;BME280;14721;42.668;23.386;2023-04-25T04:10:58;94399.44;;;11.48;100.00
27210;BME280;14721;42.668;23.386;2023-04-25T04:13:26;94414.09;;;11.43;100.00
27210;BME280;14721;42.668;23.386;2023-04-25T04:15:51;94411.97;;;11.76;100.00
27210;BME280;14721;42.668;23.386;2023-04-25T04:18:17;94407.84;;;12.10;100.00
27210;BME280;14721;42.668;23.386;2023-04-25T04:20:42;94406.56;;;12.23;100.00
27210;BME280;14721;42.668;23.386;2023-04-25T04:23:08;94406.69;;;12.22;100.00
27210;BME280;14721;42.668;23.386;2023-04-25T04:25:33;94416.38;;;12.32;100.00
27210;BME280;14721;42.668;23.386;2023-04-25T04:27:59;94413.84;;;12.31;100.00
27210;BME280;14721;42.668;23.386;2023-04-25T04:30:26;94400.31;;;12.32;100.00
27210;BME280;14721;42.668;23.386;2023-04-25T04:32:55;94406.13;;;12.28;100.00
27210;BME280;14721;42.668;23.386;2023-04-25T04:35:22;94418.00;;;12.16;100.00
27210;BME280;14721;42.668;23.386;2023-04-25T04:37:48;94409.66;;;12.19;100.00
27210;BME280;14721;42.668;23.386;2023-04-25T04:40:15;94399.31;;;12.33;100.00
27210;BME280;14721;42.668;23.386;2023-04-25T04:42:44;94399.25;;;12.16;100.00
27210;BME280;14721;42.668;23.386;2023-04-25T04:45:12;94401.72;;;11.81;100.00
27210;BME280;14721;42.668;23.386;2023-04-25T04:47:38;94399.47;;;11.67;100.00
27210;BME280;14721;42.668;23.386;2023-04-25T04:50:09;94396.94;;;11.65;100.00
27210;BME280;14721;42.668;23.386;2023-04-25T04:52:36;94394.38;;;11.64;100.00
27210;BME280;14721;42.668;23.386;2023-04-25T04:55:03;94403.09;;;11.56;100.00
27210;BME280;14721;42.668;23.386;2023-04-25T04:57:29;94416.94;;;11.71;100.00
27210;BME280;14721;42.668;23.386;2023-04-25T04:59:55;94416.50;;;11.75;100.00
27210;BME280;14721;42.668;23.386;2023-04-25T05:02:20;94431.84;;;11.83;100.00
27210;BME280;14721;42.668;23.386;2023-04-25T05:04:46;94425.06;;;11.79;100.00
27210;BME280;14721;42.668;23.386;2023-04-25T05:07:12;94425.78;;;11.81;100.00
27210;BME280;14721;42.668;23.386;2023-04-25T05:09:38;94421.28;;;11.81;100.00
27210;BME280;14721;42.668;23.386;2023-04-25T05:12:04;94428.88;;;11.67;100.00
27210;BME280;14721;42.668;23.386;2023-04-25T05:14:30;94429.03;;;11.65;100.00
27210;BME280;14721;42.668;23.386;2023-04-25T05:16:55;94432.00;;;11.62;100.00
27210;BME280;14721;42.668;23.386;2023-04-25T05:19:21;94423.25;;;11.60;100.00
27210;BME280;14721;42.668;23.386;2023-04-25T05:21:46;94431.28;;;11.70;100.00
27210;BME280;14721;42.668;23.386;2023-04-25T05:24:12;94435.19;;;11.56;100.00
27210;BME280;14721;42.668;23.386;2023-04-25T05:26:38;94448.16;;;11.51;100.00
27210;BME280;14721;42.668;23.386;2023-04-25T05:29:03;94444.50;;;11.62;100.00
27210;BME280;14721;42.668;23.386;2023-04-25T05:31:29;94430.72;;;11.76;100.00
27210;BME280;14721;42.668;23.386;2023-04-25T05:33:54;94415.50;;;11.67;100.00
27210;BME280;14721;42.668;23.386;2023-04-25T05:36:20;94427.63;;;11.71;100.00
27210;BME280;14721;42.668;23.386;2023-04-25T05:38:46;94435.50;;;11.82;100.00
27210;BME280;14721;42.668;23.386;2023-04-25T05:41:12;94424.94;;;11.90;100.00
27210;BME280;14721;42.668;23.386;2023-04-25T05:43:37;94428.03;;;11.85;100.00
27210;BME280;14721;42.668;23.386;2023-04-25T05:46:03;94446.06;;;11.83;100.00
27210;BME280;14721;42.668;23.386;2023-04-25T05:48:28;94437.75;;;11.96;100.00
27210;BME280;14721;42.668;23.386;2023-04-25T05:50:54;94436.03;;;12.04;100.00
27210;BME280;14721;42.668;23.386;2023-04-25T05:53:20;94437.84;;;12.13;100.00
27210;BME280;14721;42.668;23.386;2023-04-25T05:55:47;94441.47;;;12.31;100.00
27210;BME280;14721;42.668;23.386;2023-04-25T05:58:12;94448.59;;;12.50;100.00
27210;BME280;14721;42.668;23.386;2023-04-25T06:00:38;94438.94;;;12.66;100.00
27210;BME280;14721;42.668;23.386;2023-04-25T06:03:03;94435.94;;;12.79;100.00
27210;BME280;14721;42.668;23.386;2023-04-25T06:05:29;94436.31;;;12.57;100.00
27210;BME280;14721;42.668;23.386;2023-04-25T06:07:55;94442.88;;;12.72;100.00
27210;BME280;14721;42.668;23.386;2023-04-25T06:10:20;94438.94;;;13.03;100.00
27210;BME280;14721;42.668;23.386;2023-04-25T06:12:46;94440.41;;;13.15;99.75
27210;BME280;14721;42.668;23.386;2023-04-25T06:15:12;94434.06;;;12.89;97.84
27210;BME280;14721;42.668;23.386;2023-04-25T06:17:37;94437.66;;;12.70;97.92
27210;BME280;14721;42.668;23.386;2023-04-25T06:20:03;94440.19;;;12.99;98.61
27210;BME280;14721;42.668;23.386;2023-04-25T06:22:29;94435.75;;;13.35;99.05
27210;BME280;14721;42.668;23.386;2023-04-25T06:24:54;94447.06;;;13.38;96.01
27210;BME280;14721;42.668;23.386;2023-04-25T06:27:22;94441.16;;;13.52;94.55
27210;BME280;14721;42.668;23.386;2023-04-25T06:29:48;94445.97;;;13.66;94.36
27210;BME280;14721;42.668;23.386;2023-04-25T06:32:13;94447.22;;;13.89;95.19
27210;BME280;14721;42.668;23.386;2023-04-25T06:34:39;94454.25;;;13.90;94.78
27210;BME280;14721;42.668;23.386;2023-04-25T06:37:04;94457.03;;;13.98;94.66
27210;BME280;14721;42.668;23.386;2023-04-25T06:39:30;94444.22;;;14.27;94.06
27210;BME280;14721;42.668;23.386;2023-04-25T06:41:57;94444.00;;;14.72;93.69
27210;BME280;14721;42.668;23.386;2023-04-25T06:44:23;94445.69;;;15.06;84.25
27210;BME280;14721;42.668;23.386;2023-04-25T06:46:52;94451.44;;;15.12;81.23
27210;BME280;14721;42.668;23.386;2023-04-25T06:49:17;94450.47;;;15.29;82.93
27210;BME280;14721;42.668;23.386;2023-04-25T06:51:43;94435.09;;;15.55;82.33
27210;BME280;14721;42.668;23.386;2023-04-25T06:54:08;94460.22;;;15.71;78.39
27210;BME280;14721;42.668;23.386;2023-04-25T06:56:35;94450.53;;;15.45;76.70
27210;BME280;14721;42.668;23.386;2023-04-25T06:59:02;94448.75;;;15.20;79.30
27210;BME280;14721;42.668;23.386;2023-04-25T07:01:29;94451.91;;;15.07;80.46
27210;BME280;14721;42.668;23.386;2023-04-25T07:03:55;94457.03;;;14.92;79.14
27210;BME280;14721;42.668;23.386;2023-04-25T07:06:23;94453.78;;;15.15;79.52
27210;BME280;14721;42.668;23.386;2023-04-25T07:08:52;94450.25;;;15.14;76.64
27210;BME280;14721;42.668;23.386;2023-04-25T07:11:17;94450.22;;;14.72;77.48
27210;BME280;14721;42.668;23.386;2023-04-25T07:13:43;94457.59;;;14.70;78.37
27210;BME280;14721;42.668;23.386;2023-04-25T07:16:09;94454.31;;;14.84;78.11
27210;BME280;14721;42.668;23.386;2023-04-25T07:18:36;94451.69;;;15.00;78.94
27210;BME280;14721;42.668;23.386;2023-04-25T07:21:01;94455.78;;;15.13;78.59
27210;BME280;14721;42.668;23.386;2023-04-25T07:23:27;94440.88;;;14.84;77.45
27210;BME280;14721;42.668;23.386;2023-04-25T07:25:52;94449.44;;;14.88;78.50
27210;BME280;14721;42.668;23.386;2023-04-25T07:28:18;94454.53;;;14.65;78.60
27210;BME280;14721;42.668;23.386;2023-04-25T07:30:43;94460.50;;;14.77;79.33
27210;BME280;14721;42.668;23.386;2023-04-25T07:33:09;94454.31;;;14.84;77.75
27210;BME280;14721;42.668;23.386;2023-04-25T07:35:34;94451.63;;;15.26;76.55
27210;BME280;14721;42.668;23.386;2023-04-25T07:38:01;94437.31;;;15.59;75.90
27210;BME280;14721;42.668;23.386;2023-04-25T07:40:27;94446.94;;;16.10;75.76
27210;BME280;14721;42.668;23.386;2023-04-25T07:43:11;94446.63;;;16.61;73.23
27210;BME280;14721;42.668;23.386;2023-04-25T07:45:39;94440.38;;;16.76;70.95
27210;BME280;14721;42.668;23.386;2023-04-25T07:48:05;94442.66;;;16.96;72.45
27210;BME280;14721;42.668;23.386;2023-04-25T07:50:30;94436.59;;;17.48;71.15
27210;BME280;14721;42.668;23.386;2023-04-25T07:52:56;94429.50;;;18.00;69.31
27210;BME280;14721;42.668;23.386;2023-04-25T07:55:21;94430.56;;;17.91;68.41
27210;BME280;14721;42.668;23.386;2023-04-25T07:57:47;94427.38;;;17.65;69.51
27210;BME280;14721;42.668;23.386;2023-04-25T08:00:13;94423.41;;;17.53;69.26
27210;BME280;14721;42.668;23.386;2023-04-25T08:02:40;94421.66;;;17.60;70.57
27210;BME280;14721;42.668;23.386;2023-04-25T08:05:05;94422.19;;;17.56;70.57
27210;BME280;14721;42.668;23.386;2023-04-25T08:07:33;94416.19;;;17.46;70.23
27210;BME280;14721;42.668;23.386;2023-04-25T08:09:59;94416.38;;;17.28;71.29
27210;BME280;14721;42.668;23.386;2023-04-25T08:12:24;94411.63;;;17.69;70.45
27210;BME280;14721;42.668;23.386;2023-04-25T08:14:50;94418.69;;;18.97;65.80
27210;BME280;14721;42.668;23.386;2023-04-25T08:17:15;94418.53;;;19.78;62.14
27210;BME280;14721;42.668;23.386;2023-04-25T08:19:41;94423.16;;;20.62;61.06
27210;BME280;14721;42.668;23.386;2023-04-25T08:22:07;94422.44;;;20.95;56.98
27210;BME280;14721;42.668;23.386;2023-04-25T08:24:32;94422.09;;;20.84;56.51
27210;BME280;14721;42.668;23.386;2023-04-25T08:26:58;94410.44;;;20.62;58.43
27210;BME280;14721;42.668;23.386;2023-04-25T08:29:24;94410.78;;;20.31;57.41
27210;BME280;14721;42.668;23.386;2023-04-25T08:31:50;94410.81;;;19.96;57.11
27210;BME280;14721;42.668;23.386;2023-04-25T08:34:18;94403.66;;;20.09;56.23
27210;BME280;14721;42.668;23.386;2023-04-25T08:36:43;94392.53;;;19.83;56.02
27210;BME280;14721;42.668;23.386;2023-04-25T08:39:09;94400.22;;;19.80;55.86
27210;BME280;14721;42.668;23.386;2023-04-25T08:41:37;94399.19;;;19.02;57.41
27210;BME280;14721;42.668;23.386;2023-04-25T08:44:03;94404.25;;;18.67;60.12
27210;BME280;14721;42.668;23.386;2023-04-25T08:46:30;94414.00;;;18.17;63.36
27210;BME280;14721;42.668;23.386;2023-04-25T08:49:00;94411.97;;;17.96;61.87
27210;BME280;14721;42.668;23.386;2023-04-25T08:51:30;94414.13;;;17.78;62.30
27210;BME280;14721;42.668;23.386;2023-04-25T08:54:10;94419.72;;;17.38;65.99
27210;BME280;14721;42.668;23.386;2023-04-25T08:56:38;94421.66;;;16.75;70.38
27210;BME280;14721;42.668;23.386;2023-04-25T08:59:04;94427.78;;;16.45;74.53
27210;BME280;14721;42.668;23.386;2023-04-25T09:01:29;94417.53;;;16.95;78.55
27210;BME280;14721;42.668;23.386;2023-04-25T09:03:57;94407.59;;;16.87;76.09
27210;BME280;14721;42.668;23.386;2023-04-25T09:06:23;94401.22;;;16.88;74.11
27210;BME280;14721;42.668;23.386;2023-04-25T09:08:49;94398.06;;;17.16;72.70
27210;BME280;14721;42.668;23.386;2023-04-25T09:11:15;94390.41;;;17.27;72.36
27210;BME280;14721;42.668;23.386;2023-04-25T09:13:41;94396.97;;;17.94;71.38
27210;BME280;14721;42.668;23.386;2023-04-25T09:16:06;94389.31;;;18.57;69.64
27210;BME280;14721;42.668;23.386;2023-04-25T09:18:33;94383.94;;;18.72;65.79
27210;BME280;14721;42.668;23.386;2023-04-25T09:23:39;94378.34;;;18.88;63.63
27210;BME280;14721;42.668;23.386;2023-04-25T09:26:06;94376.84;;;19.00;64.52
27210;BME280;14721;42.668;23.386;2023-04-25T09:28:32;94386.72;;;18.78;64.41
27210;BME280;14721;42.668;23.386;2023-04-25T09:30:58;94379.28;;;18.65;64.92
27210;BME280;14721;42.668;23.386;2023-04-25T09:33:29;94372.94;;;18.88;63.07
27210;BME280;14721;42.668;23.386;2023-04-25T09:36:02;94385.16;;;18.84;63.52
27210;BME280;14721;42.668;23.386;2023-04-25T09:38:30;94392.69;;;18.59;64.72
27210;BME280;14721;42.668;23.386;2023-04-25T09:40:56;94377.38;;;18.14;66.96
27210;BME280;14721;42.668;23.386;2023-04-25T09:43:23;94370.53;;;17.81;67.63
27210;BME280;14721;42.668;23.386;2023-04-25T09:45:51;94372.56;;;17.79;69.19
27210;BME280;14721;42.668;23.386;2023-04-25T09:48:19;94372.50;;;17.87;69.18
27210;BME280;14721;42.668;23.386;2023-04-25T09:50:50;94372.84;;;17.31;67.72
27210;BME280;14721;42.668;23.386;2023-04-25T09:53:29;94363.81;;;17.16;69.10
27210;BME280;14721;42.668;23.386;2023-04-25T09:55:55;94366.94;;;16.97;69.11
27210;BME280;14721;42.668;23.386;2023-04-25T09:58:24;94378.94;;;17.25;70.16
27210;BME280;14721;42.668;23.386;2023-04-25T10:00:51;94369.25;;;17.47;67.64
27210;BME280;14721;42.668;23.386;2023-04-25T10:03:20;94380.06;;;17.39;67.23
27210;BME280;14721;42.668;23.386;2023-04-25T10:05:48;94374.41;;;17.26;66.72
27210;BME280;14721;42.668;23.386;2023-04-25T10:08:14;94385.28;;;17.48;66.86
27210;BME280;14721;42.668;23.386;2023-04-25T10:10:42;94381.81;;;17.62;66.23
27210;BME280;14721;42.668;23.386;2023-04-25T10:13:08;94377.50;;;17.53;66.18
27210;BME280;14721;42.668;23.386;2023-04-25T10:15:37;94384.34;;;17.25;65.66
27210;BME280;14721;42.668;23.386;2023-04-25T10:18:03;94377.00;;;17.11;67.12
27210;BME280;14721;42.668;23.386;2023-04-25T10:20:30;94365.78;;;16.92;67.96
27210;BME280;14721;42.668;23.386;2023-04-25T10:23:03;94367.34;;;16.78;67.74
27210;BME280;14721;42.668;23.386;2023-04-25T10:25:29;94381.44;;;16.09;70.57
27210;BME280;14721;42.668;23.386;2023-04-25T10:27:54;94367.38;;;15.34;78.17
27210;BME280;14721;42.668;23.386;2023-04-25T10:30:20;94374.53;;;14.34;85.19
27210;BME280;14721;42.668;23.386;2023-04-25T10:32:46;94384.25;;;13.84;87.43
27210;BME280;14721;42.668;23.386;2023-04-25T10:35:17;94376.97;;;13.76;89.22
27210;BME280;14721;42.668;23.386;2023-04-25T10:37:59;94369.03;;;13.92;88.88
27210;BME280;14721;42.668;23.386;2023-04-25T10:40:25;94373.56;;;14.17;89.03
27210;BME280;14721;42.668;23.386;2023-04-25T10:42:54;94377.81;;;14.45;89.70
27210;BME280;14721;42.668;23.386;2023-04-25T10:45:23;94354.31;;;14.89;90.03
27210;BME280;14721;42.668;23.386;2023-04-25T10:47:48;94363.53;;;15.36;89.72
27210;BME280;14721;42.668;23.386;2023-04-25T10:50:14;94388.66;;;15.53;85.39
27210;BME280;14721;42.668;23.386;2023-04-25T10:52:43;94386.66;;;15.87;86.24
27210;BME280;14721;42.668;23.386;2023-04-25T10:55:09;94374.72;;;15.81;80.23
27210;BME280;14721;42.668;23.386;2023-04-25T10:57:45;94381.75;;;15.66;75.40
27210;BME280;14721;42.668;23.386;2023-04-25T11:00:20;94374.84;;;15.72;78.54
27210;BME280;14721;42.668;23.386;2023-04-25T11:02:57;94382.44;;;15.60;76.05
27210;BME280;14721;42.668;23.386;2023-04-25T11:05:36;94380.25;;;15.80;75.28
27210;BME280;14721;42.668;23.386;2023-04-25T11:08:10;94362.75;;;15.76;71.64
27210;BME280;14721;42.668;23.386;2023-04-25T11:10:36;94374.34;;;15.60;72.47
27210;BME280;14721;42.668;23.386;2023-04-25T11:13:02;94363.56;;;15.52;72.34
27210;BME280;14721;42.668;23.386;2023-04-25T11:15:28;94359.38;;;15.58;74.88
27210;BME280;14721;42.668;23.386;2023-04-25T11:17:54;94365.75;;;15.57;77.02
27210;BME280;14721;42.668;23.386;2023-04-25T11:20:20;94355.00;;;15.49;76.73
27210;BME280;14721;42.668;23.386;2023-04-25T11:22:46;94355.44;;;15.36;77.63
27210;BME280;14721;42.668;23.386;2023-04-25T11:25:14;94351.56;;;15.31;78.62
27210;BME280;14721;42.668;23.386;2023-04-25T11:27:55;94359.00;;;15.45;79.58
27210;BME280;14721;42.668;23.386;2023-04-25T11:30:23;94359.88;;;15.45;78.05
27210;BME280;14721;42.668;23.386;2023-04-25T11:32:49;94358.28;;;15.35;78.31
27210;BME280;14721;42.668;23.386;2023-04-25T11:35:15;94351.88;;;15.12;76.88
27210;BME280;14721;42.668;23.386;2023-04-25T11:37:43;94350.66;;;15.06;77.51
27210;BME280;14721;42.668;23.386;2023-04-25T11:40:09;94348.03;;;15.30;77.62
27210;BME280;14721;42.668;23.386;2023-04-25T11:42:38;94348.56;;;15.34;79.66
27210;BME280;14721;42.668;23.386;2023-04-25T11:45:05;94352.91;;;15.27;81.05
27210;BME280;14721;42.668;23.386;2023-04-25T11:47:32;94354.66;;;15.44;83.38
27210;BME280;14721;42.668;23.386;2023-04-25T11:50:02;94359.53;;;15.48;84.83
27210;BME280;14721;42.668;23.386;2023-04-25T11:52:47;94357.00;;;15.39;85.00
27210;BME280;14721;42.668;23.386;2023-04-25T11:55:15;94370.38;;;15.23;85.64
27210;BME280;14721;42.668;23.386;2023-04-25T11:57:42;94365.47;;;15.02;87.93
27210;BME280;14721;42.668;23.386;2023-04-25T12:00:14;94347.00;;;14.65;89.37
27210;BME280;14721;42.668;23.386;2023-04-25T12:02:43;94362.19;;;14.41;83.01
27210;BME280;14721;42.668;23.386;2023-04-25T12:05:10;94365.97;;;14.13;82.12
27210;BME280;14721;42.668;23.386;2023-04-25T12:07:36;94346.66;;;14.09;86.07
27210;BME280;14721;42.668;23.386;2023-04-25T12:10:11;94349.91;;;14.21;86.00
27210;BME280;14721;42.668;23.386;2023-04-25T12:12:37;94352.72;;;14.37;84.29
27210;BME280;14721;42.668;23.386;2023-04-25T12:15:14;94340.94;;;14.63;85.04
27210;BME280;14721;42.668;23.386;2023-04-25T12:17:42;94340.34;;;14.85;83.16
27210;BME280;14721;42.668;23.386;2023-04-25T12:20:12;94338.78;;;15.25;82.67
27210;BME280;14721;42.668;23.386;2023-04-25T12:22:41;94340.84;;;15.63;80.40
27210;BME280;14721;42.668;23.386;2023-04-25T12:25:11;94331.44;;;15.83;78.38
27210;BME280;14721;42.668;23.386;2023-04-25T12:27:36;94333.63;;;15.87;74.20
27210;BME280;14721;42.668;23.386;2023-04-25T12:30:03;94318.66;;;15.85;73.40
27210;BME280;14721;42.668;23.386;2023-04-25T12:32:29;94319.28;;;16.11;69.83
27210;BME280;14721;42.668;23.386;2023-04-25T12:34:54;94324.31;;;16.22;73.15
27210;BME280;14721;42.668;23.386;2023-04-25T12:37:20;94337.97;;;16.20;74.05
27210;BME280;14721;42.668;23.386;2023-04-25T12:39:47;94335.75;;;16.40;75.00
27210;BME280;14721;42.668;23.386;2023-04-25T12:42:13;94351.88;;;16.72;72.66
27210;BME280;14721;42.668;23.386;2023-04-25T12:44:38;94385.94;;;16.41;70.27
27210;BME280;14721;42.668;23.386;2023-04-25T12:47:04;94395.22;;;15.58;75.09